Time;durP1;ratioP1;P1;durP2;ratioP2;P2;SDS_P1;SDS_P2;PMS_P1;PMS_P2;Temp;Humidity;BMP_temperature;BMP_pressure;BME280_temperature;BME280_humidity;BME280_pressure;Samples;Min_cycle;Max_cycle;Signal;HPM_P1;HPM_P2
2022/02/12 00:00:24;;;;;;;33.65;18.33;;;5.90;68.40;;;;;;5116753;28;20036;-36
2022/02/12 00:02:52;;;;;;;57.97;23.35;;;5.90;68.40;;;;;;5116614;28;20059;-36
2022/02/12 00:05:18;;;;;;;102.45;37.08;;;5.90;68.40;;;;;;5116607;28;20042;-40
2022/02/12 00:07:44;;;;;;;184.63;68.90;;;5.90;68.40;;;;;;5116739;28;20032;-37
2022/02/12 00:10:10;;;;;;;25.58;11.10;;;5.90;68.40;;;;;;5116742;28;20020;-39
2022/02/12 00:12:35;;;;;;;46.60;19.10;;;6.00;68.50;;;;;;5116039;28;20024;-40
2022/02/12 00:15:02;;;;;;;24.85;11.80;;;6.00;68.50;;;;;;5116736;28;20031;-40
2022/02/12 00:17:28;;;;;;;23.42;12.23;;;6.00;68.50;;;;;;5116171;28;20103;-40
2022/02/12 00:19:53;;;;;;;47.42;24.02;;;6.00;68.30;;;;;;5116585;28;20078;-39
2022/02/12 00:22:19;;;;;;;21.52;11.55;;;6.00;68.30;;;;;;5116426;28;20028;-36
2022/02/12 00:24:45;;;;;;;18.27;10.70;;;6.10;68.40;;;;;;5116121;28;20439;-40
2022/02/12 00:27:11;;;;;;;49.40;27.23;;;6.10;68.40;;;;;;5116073;28;20056;-40
2022/02/12 00:29:37;;;;;;;25.52;12.90;;;6.10;68.30;;;;;;5116457;28;20028;-40
2022/02/12 00:32:03;;;;;;;56.13;26.38;;;6.10;68.30;;;;;;5116008;28;20059;-38
2022/02/12 00:34:29;;;;;;;129.52;48.80;;;6.10;68.30;;;;;;5116304;28;20092;-39
2022/02/12 00:36:54;;;;;;;65.57;26.83;;;6.10;68.30;;;;;;5115896;28;20439;-37
2022/02/12 00:39:20;;;;;;;28.63;12.90;;;6.00;68.30;;;;;;5116321;28;20319;-36
2022/02/12 00:41:46;;;;;;;38.65;17.17;;;6.00;68.30;;;;;;5115891;28;20407;-36
2022/02/12 00:44:12;;;;;;;16.58;8.88;;;6.00;68.30;;;;;;5116113;28;20032;-40
2022/02/12 00:46:38;;;;;;;14.18;8.07;;;6.00;68.40;;;;;;5115767;28;20110;-36
2022/02/12 00:49:04;;;;;;;17.98;10.43;;;6.00;68.50;;;;;;5116316;28;20020;-37
2022/02/12 00:51:34;;;;;;;16.45;9.68;;;5.80;68.60;;;;;;5115872;28;20055;-36
2022/02/12 00:54:02;;;;;;;16.35;9.48;;;5.80;68.90;;;;;;5116391;28;20028;-40
2022/02/12 00:56:31;;;;;;;17.95;8.90;;;5.80;69.20;;;;;;5116490;28;20403;-36
2022/02/12 00:58:57;;;;;;;45.28;24.75;;;5.80;69.40;;;;;;5115817;28;20031;-39
2022/02/12 01:01:23;;;;;;;19.20;11.63;;;5.70;69.50;;;;;;5115723;28;20319;-36
2022/02/12 01:03:49;;;;;;;17.13;10.77;;;5.70;69.70;;;;;;5115632;28;20031;-39
2022/02/12 01:06:14;;;;;;;24.25;12.25;;;5.70;69.90;;;;;;5116312;28;20114;-38
2022/02/12 01:08:40;;;;;;;26.73;14.20;;;5.70;70.00;;;;;;5119798;28;20519;-36
2022/02/12 01:11:06;;;;;;;32.40;17.05;;;5.70;70.00;;;;;;5120108;28;20057;-40
2022/02/12 01:13:31;;;;;;;35.47;17.15;;;5.60;70.10;;;;;;5119843;28;20034;-40
2022/02/12 01:15:57;;;;;;;33.83;17.02;;;5.60;70.10;;;;;;5120093;28;20084;-36
2022/02/12 01:18:23;;;;;;;29.65;17.05;;;5.60;70.20;;;;;;5119800;28;20035;-40
2022/02/12 01:20:48;;;;;;;29.92;16.10;;;5.70;70.30;;;;;;5119973;28;20042;-39
2022/02/12 01:23:14;;;;;;;24.77;13.75;;;5.60;70.30;;;;;;5119778;28;20032;-36
2022/02/12 01:25:40;;;;;;;24.92;12.80;;;5.70;70.30;;;;;;5119260;28;20028;-38
2022/02/12 01:28:06;;;;;;;18.15;11.05;;;5.70;70.40;;;;;;5119592;28;20315;-36
2022/02/12 01:30:31;;;;;;;20.58;12.13;;;5.70;70.60;;;;;;5119712;28;20039;-37
2022/02/12 01:32:57;;;;;;;16.38;10.73;;;5.70;70.60;;;;;;5119290;28;20031;-40
2022/02/12 01:35:24;;;;;;;18.25;11.35;;;5.70;70.90;;;;;;5119970;28;20411;-36
2022/02/12 01:37:50;;;;;;;17.48;10.77;;;5.70;70.90;;;;;;5119485;28;20424;-37
2022/02/12 01:40:16;;;;;;;15.93;9.77;;;5.70;71.40;;;;;;5119594;28;20031;-39
2022/02/12 01:42:42;;;;;;;15.35;9.63;;;5.60;71.40;;;;;;5119299;28;20039;-38
2022/02/12 01:45:08;;;;;;;19.60;12.07;;;5.60;71.50;;;;;;5119283;28;20323;-36
2022/02/12 01:47:34;;;;;;;18.67;10.27;;;5.60;71.80;;;;;;5119196;28;20030;-38
2022/02/12 01:50:00;;;;;;;19.05;11.50;;;5.60;72.00;;;;;;5119124;28;20031;-40
2022/02/12 01:52:36;;;;;;;16.70;9.80;;;5.60;72.10;;;;;;5119135;28;20032;-38
2022/02/12 01:55:02;;;;;;;16.33;9.82;;;5.60;72.20;;;;;;5118827;28;20064;-40
2022/02/12 01:57:28;;;;;;;17.80;10.27;;;5.60;72.20;;;;;;5118995;27;20027;-36
2022/02/12 01:59:54;;;;;;;19.38;10.45;;;5.60;72.20;;;;;;5118931;28;20073;-41
2022/02/12 02:02:20;;;;;;;17.00;10.20;;;5.60;72.40;;;;;;5119034;28;20035;-38
2022/02/12 02:04:45;;;;;;;18.25;10.88;;;5.60;72.40;;;;;;5118628;28;20046;-36
2022/02/12 02:07:11;;;;;;;14.13;9.55;;;5.60;72.60;;;;;;5118883;28;20024;-38
2022/02/12 02:09:37;;;;;;;17.27;10.80;;;5.60;72.70;;;;;;5118848;28;20024;-36
2022/02/12 02:12:03;;;;;;;19.13;11.73;;;5.60;72.80;;;;;;5118644;28;20419;-40
2022/02/12 02:14:34;;;;;;;19.05;12.25;;;5.60;73.00;;;;;;5118643;28;20035;-40
2022/02/12 02:17:01;;;;;;;17.52;11.52;;;5.60;73.20;;;;;;5118506;28;20031;-36
2022/02/12 02:19:27;;;;;;;20.77;11.30;;;5.60;73.30;;;;;;5118036;28;20032;-36
2022/02/12 02:21:55;;;;;;;20.08;11.77;;;5.60;73.30;;;;;;5118010;28;20040;-40
2022/02/12 02:24:20;;;;;;;19.77;10.88;;;5.60;73.50;;;;;;5118284;28;20027;-36
2022/02/12 02:26:46;;;;;;;21.05;11.63;;;5.50;73.60;;;;;;5117928;28;20106;-38
2022/02/12 02:29:12;;;;;;;23.75;12.88;;;5.50;73.70;;;;;;5118205;28;20031;-40
2022/02/12 02:31:38;;;;;;;22.77;13.10;;;5.50;74.00;;;;;;5118374;28;20032;-39
2022/02/12 02:34:11;;;;;;;21.33;12.65;;;5.50;74.30;;;;;;5118119;28;20315;-36
2022/02/12 02:36:37;;;;;;;26.10;14.32;;;5.50;74.70;;;;;;5118204;28;20071;-36
2022/02/12 02:39:04;;;;;;;22.52;13.18;;;5.40;74.90;;;;;;5118106;28;20119;-37
2022/02/12 02:41:30;;;;;;;23.50;14.05;;;5.40;75.20;;;;;;5118495;28;20036;-38
2022/02/12 02:43:56;;;;;;;25.90;15.48;;;5.40;75.30;;;;;;5118201;28;20335;-36
2022/02/12 02:46:22;;;;;;;31.45;16.20;;;5.40;75.50;;;;;;5118213;28;20028;-36
2022/02/12 02:48:48;;;;;;;25.42;15.77;;;5.40;75.70;;;;;;5117663;28;20039;-36
2022/02/12 02:56:42;;;;;;;34.50;18.85;;;5.20;76.60;;;;;;5117729;28;20096;-37
2022/02/12 02:59:08;;;;;;;33.72;19.25;;;5.20;77.00;;;;;;5118036;28;20365;-36
2022/02/12 03:01:35;;;;;;;32.17;18.77;;;5.20;77.40;;;;;;5118029;28;20044;-38
2022/02/12 03:04:03;;;;;;;36.03;20.38;;;5.20;77.60;;;;;;5118127;28;20036;-37
2022/02/12 03:06:29;;;;;;;34.22;19.67;;;5.20;77.70;;;;;;5117733;28;20038;-36
2022/02/12 03:08:56;;;;;;;31.75;19.05;;;5.10;77.90;;;;;;5117709;28;20412;-39
2022/02/12 03:11:23;;;;;;;32.60;20.35;;;5.20;78.00;;;;;;5117862;28;20031;-40
2022/02/12 03:13:50;;;;;;;36.03;20.90;;;5.20;78.20;;;;;;5117446;28;20412;-36
2022/02/12 03:16:16;;;;;;;34.88;20.52;;;5.20;78.40;;;;;;5117893;28;20360;-36
2022/02/12 03:18:44;;;;;;;35.58;21.13;;;5.10;78.60;;;;;;5117039;27;20028;-36
2022/02/12 03:21:10;;;;;;;42.33;22.48;;;5.20;78.70;;;;;;5117753;28;20114;-38
2022/02/12 03:23:36;;;;;;;39.47;21.85;;;5.10;78.80;;;;;;5117282;28;20028;-40
2022/02/12 03:26:02;;;;;;;40.78;22.55;;;5.10;79.10;;;;;;5117276;28;20392;-39
2022/02/12 03:28:28;;;;;;;39.78;22.95;;;5.10;79.20;;;;;;5117003;28;20031;-36
2022/02/12 03:30:53;;;;;;;38.80;22.23;;;5.20;79.20;;;;;;5116569;28;20028;-36
2022/02/12 03:33:19;;;;;;;41.17;23.90;;;5.20;79.40;;;;;;5117076;28;20038;-41
2022/02/12 03:35:49;;;;;;;37.90;22.52;;;5.20;79.40;;;;;;5117423;28;20318;-40
2022/02/12 03:38:22;;;;;;;40.50;23.75;;;5.20;79.50;;;;;;5116685;28;20466;-38
2022/02/12 03:40:49;;;;;;;39.88;23.63;;;5.20;79.60;;;;;;5117356;28;20112;-40
2022/02/12 03:43:16;;;;;;;41.38;23.10;;;5.20;79.90;;;;;;5116721;28;20161;-40
2022/02/12 03:45:43;;;;;;;40.58;23.27;;;5.20;79.80;;;;;;5117010;28;20036;-36
2022/02/12 03:48:10;;;;;;;46.72;25.33;;;5.20;80.00;;;;;;5116675;28;20054;-40
2022/02/12 03:50:37;;;;;;;42.60;24.25;;;5.20;80.00;;;;;;5116778;28;20051;-36
2022/02/12 03:53:04;;;;;;;46.17;25.55;;;5.30;80.10;;;;;;5116843;28;20039;-38
2022/02/12 03:55:36;;;;;;;48.78;27.83;;;5.30;80.20;;;;;;5117115;28;20131;-36
2022/02/12 03:58:03;;;;;;;43.90;26.10;;;5.30;80.30;;;;;;5116712;28;20039;-36
2022/02/12 04:00:28;;;;;;;42.53;24.48;;;5.30;80.30;;;;;;5116797;28;20027;-36
2022/02/12 04:02:54;;;;;;;46.45;25.38;;;5.40;80.40;;;;;;5116398;28;20040;-36
2022/02/12 04:05:21;;;;;;;46.10;26.00;;;5.40;80.40;;;;;;5116636;28;20032;-40
2022/02/12 04:07:47;;;;;;;52.45;27.73;;;5.50;80.30;;;;;;5116566;28;20423;-42
2022/02/12 04:10:16;;;;;;;44.35;26.33;;;5.50;80.30;;;;;;5116554;28;20031;-39
2022/02/12 04:12:43;;;;;;;45.47;25.50;;;5.50;80.40;;;;;;5116245;28;20032;-36
2022/02/12 04:15:11;;;;;;;43.70;25.95;;;5.60;80.40;;;;;;5116585;28;20407;-37
2022/02/12 04:17:37;;;;;;;46.28;26.75;;;5.60;80.40;;;;;;5116196;28;20040;-40
2022/02/12 04:20:05;;;;;;;45.75;26.30;;;5.60;80.40;;;;;;5116237;28;20211;-40
2022/02/12 04:22:32;;;;;;;45.75;27.80;;;5.70;80.30;;;;;;5116551;28;20043;-40
2022/02/12 04:24:59;;;;;;;49.30;27.05;;;5.70;80.40;;;;;;5116251;28;20035;-36
2022/02/12 04:27:25;;;;;;;46.30;26.02;;;5.70;80.40;;;;;;5116351;28;20032;-39
2022/02/12 04:29:50;;;;;;;45.20;27.30;;;5.80;80.40;;;;;;5116393;28;20472;-36
2022/02/12 04:32:17;;;;;;;51.03;26.27;;;5.80;80.60;;;;;;5116211;28;20059;-40
2022/02/12 04:34:43;;;;;;;46.42;27.10;;;5.80;80.70;;;;;;5116531;28;20118;-36
2022/02/12 04:37:08;;;;;;;41.95;25.77;;;5.80;80.80;;;;;;5115023;28;20063;-39
2022/02/12 04:39:34;;;;;;;48.65;27.38;;;5.80;81.00;;;;;;5116373;28;20032;-37
2022/02/12 04:42:00;;;;;;;49.88;26.23;;;5.90;81.20;;;;;;5117815;28;20054;-38
2022/02/12 04:44:26;;;;;;;43.10;24.92;;;5.90;81.30;;;;;;5120762;28;20031;-37
2022/02/12 04:46:51;;;;;;;44.78;27.25;;;6.00;81.50;;;;;;5119829;28;20043;-36
2022/02/12 04:49:22;;;;;;;46.65;25.33;;;6.10;81.60;;;;;;5120342;28;20027;-40
2022/02/12 04:51:47;;;;;;;43.08;25.15;;;6.10;81.60;;;;;;5119857;28;20074;-36
2022/02/12 04:54:13;;;;;;;47.22;27.20;;;6.10;81.50;;;;;;5120078;28;20024;-37
2022/02/12 04:56:39;;;;;;;41.63;25.00;;;6.20;81.50;;;;;;5119893;28;20035;-41
2022/02/12 04:59:04;;;;;;;43.17;25.08;;;6.20;81.30;;;;;;5120054;28;20068;-42
2022/02/12 05:01:30;;;;;;;42.28;24.77;;;6.20;81.10;;;;;;5120562;28;20104;-38
2022/02/12 05:03:56;;;;;;;46.03;26.83;;;6.30;81.10;;;;;;5119891;28;20023;-36
2022/02/12 05:06:22;;;;;;;40.33;24.50;;;6.30;80.90;;;;;;5120168;28;20020;-40
2022/02/12 05:08:48;;;;;;;40.03;23.08;;;6.40;80.90;;;;;;5119830;27;20034;-38
2022/02/12 05:11:13;;;;;;;39.78;23.90;;;6.40;80.60;;;;;;5120300;28;20031;-39
2022/02/12 05:13:39;;;;;;;38.53;23.00;;;6.40;80.40;;;;;;5119493;28;20026;-36
2022/02/12 05:16:06;;;;;;;38.13;22.67;;;6.40;80.40;;;;;;5120164;28;20111;-40
2022/02/12 05:18:32;;;;;;;36.72;20.95;;;6.50;80.20;;;;;;5119620;28;20045;-40
2022/02/12 05:20:58;;;;;;;35.92;22.40;;;6.50;80.00;;;;;;5120085;28;20415;-37
2022/02/12 05:23:25;;;;;;;36.97;20.63;;;6.50;79.90;;;;;;5119281;28;20027;-40
2022/02/12 05:25:50;;;;;;;33.10;20.83;;;6.50;79.80;;;;;;5119505;28;20063;-36
2022/02/12 05:28:16;;;;;;;33.90;19.60;;;6.50;79.70;;;;;;5119079;28;20070;-42
2022/02/12 05:30:43;;;;;;;32.10;20.27;;;6.50;79.50;;;;;;5119583;28;20028;-37
2022/02/12 05:33:09;;;;;;;33.38;19.92;;;6.60;79.60;;;;;;5119304;28;20036;-38
2022/02/12 05:35:35;;;;;;;34.08;19.40;;;6.60;79.40;;;;;;5119653;28;20419;-41
2022/02/12 05:38:01;;;;;;;34.20;18.23;;;6.60;79.20;;;;;;5118799;28;20181;-37
2022/02/12 05:40:27;;;;;;;29.10;18.05;;;6.60;79.10;;;;;;5119372;28;20110;-36
2022/02/12 05:42:53;;;;;;;29.58;17.73;;;6.60;78.90;;;;;;5118774;28;20047;-40
2022/02/12 05:45:18;;;;;;;28.45;16.77;;;6.70;78.90;;;;;;5119055;28;20031;-37
2022/02/12 05:47:44;;;;;;;35.05;18.35;;;6.70;78.80;;;;;;5118563;28;20031;-36
2022/02/12 05:50:10;;;;;;;28.67;17.25;;;6.70;78.70;;;;;;5118990;28;20035;-36
2022/02/12 05:52:36;;;;;;;31.67;17.83;;;6.70;78.60;;;;;;5118248;28;20040;-40
2022/02/12 05:55:03;;;;;;;28.13;16.67;;;6.70;78.50;;;;;;5118102;28;20391;-38
2022/02/12 05:57:28;;;;;;;26.05;16.33;;;6.70;78.50;;;;;;5118870;28;20085;-37
2022/02/12 05:59:54;;;;;;;25.17;15.30;;;6.70;78.40;;;;;;5118973;28;20411;-37
2022/02/12 06:02:20;;;;;;;24.35;14.85;;;6.60;78.20;;;;;;5118305;28;20044;-37
2022/02/12 06:04:45;;;;;;;23.88;14.65;;;6.60;78.30;;;;;;5118506;28;20037;-36
2022/02/12 06:07:11;;;;;;;65.68;39.92;;;6.60;78.20;;;;;;5118183;28;20111;-39
2022/02/12 06:09:37;;;;;;;22.23;13.93;;;6.60;78.20;;;;;;5117895;28;20032;-37
2022/02/12 06:12:04;;;;;;;24.42;13.90;;;6.60;78.20;;;;;;5114002;28;20319;-40
2022/02/12 06:14:30;;;;;;;23.73;14.10;;;6.60;78.20;;;;;;5104464;28;20036;-39
2022/02/12 06:16:58;;;;;;;24.02;14.20;;;6.60;78.80;;;;;;5108842;28;20028;-39
2022/02/12 06:19:24;;;;;;;23.05;14.43;;;6.60;78.30;;;;;;5114910;28;20023;-37
2022/02/12 06:21:50;;;;;;;23.52;14.07;;;6.60;78.40;;;;;;5117594;28;20528;-40
2022/02/12 06:24:16;;;;;;;24.05;15.15;;;6.60;78.60;;;;;;5117855;28;20055;-36
2022/02/12 06:26:46;;;;;;;24.75;15.15;;;6.50;78.70;;;;;;5117771;28;20035;-40
2022/02/12 06:29:13;;;;;;;27.23;14.93;;;6.50;79.00;;;;;;5118026;28;20357;-37
2022/02/12 06:31:39;;;;;;;22.73;14.27;;;6.50;79.30;;;;;;5117651;28;20422;-40
2022/02/12 06:34:05;;;;;;;21.73;13.70;;;6.50;79.40;;;;;;5117570;28;20035;-37
2022/02/12 06:36:31;;;;;;;25.90;14.48;;;6.40;79.30;;;;;;5118314;28;20061;-42
2022/02/12 06:38:57;;;;;;;24.52;14.13;;;6.40;79.90;;;;;;5117921;28;20036;-38
2022/02/12 06:41:23;;;;;;;25.58;14.35;;;6.40;79.60;;;;;;5118193;28;20031;-37
2022/02/12 06:43:48;;;;;;;24.15;14.38;;;6.30;79.80;;;;;;5117623;27;20028;-41
2022/02/12 06:46:14;;;;;;;26.33;15.77;;;6.30;80.10;;;;;;5117744;28;20353;-38
2022/02/12 06:48:40;;;;;;;26.30;16.05;;;6.30;80.20;;;;;;5117147;28;20046;-41
2022/02/12 06:51:06;;;;;;;27.17;16.40;;;6.30;80.20;;;;;;5117080;28;20117;-38
2022/02/12 06:53:33;;;;;;;26.02;16.95;;;6.20;80.20;;;;;;5117498;28;20024;-38
2022/02/12 06:56:00;;;;;;;26.15;17.27;;;6.20;80.40;;;;;;5117943;28;20072;-38
2022/02/12 06:58:26;;;;;;;29.67;17.77;;;6.20;80.40;;;;;;5117010;28;20035;-41
2022/02/12 07:00:51;;;;;;;26.10;16.85;;;6.10;80.40;;;;;;5117589;28;20028;-39
2022/02/12 07:03:17;;;;;;;27.05;14.40;;;6.00;80.30;;;;;;5111684;28;20165;-38
2022/02/12 07:05:43;;;;;;;23.08;13.73;;;6.00;79.70;;;;;;5096793;28;20032;-38
2022/02/12 07:08:08;;;;;;;20.95;12.05;;;5.90;79.20;;;;;;5106284;28;20043;-44
2022/02/12 07:10:36;;;;;;;16.27;10.50;;;5.80;78.40;;;;;;5117465;28;20024;-37
2022/02/12 07:13:04;;;;;;;16.50;10.48;;;5.60;78.10;;;;;;5116954;28;20073;-40
2022/02/12 07:15:31;;;;;;;23.88;15.23;;;5.50;78.00;;;;;;5117339;28;20028;-38
2022/02/12 07:17:57;;;;;;;20.90;11.93;;;5.40;77.90;;;;;;5116815;28;20055;-41
2022/02/12 07:20:23;;;;;;;17.88;10.82;;;5.20;77.90;;;;;;5117204;27;20112;-38
2022/02/12 07:22:48;;;;;;;16.10;10.20;;;5.10;78.10;;;;;;5116675;28;20082;-40
2022/02/12 07:25:15;;;;;;;15.32;9.55;;;5.00;78.20;;;;;;5116815;28;20035;-38
2022/02/12 07:27:42;;;;;;;14.00;8.68;;;4.90;78.50;;;;;;5116407;28;20438;-38
2022/02/12 07:30:13;;;;;;;13.98;8.55;;;4.70;78.60;;;;;;5116760;28;20403;-39
2022/02/12 07:32:40;;;;;;;10.48;6.90;;;4.60;78.80;;;;;;5116158;28;20055;-38
2022/02/12 07:35:11;;;;;;;10.20;6.72;;;4.50;79.00;;;;;;5116883;27;20472;-39
2022/02/12 07:37:42;;;;;;;10.82;6.80;;;4.40;79.50;;;;;;5112939;28;20081;-37
2022/02/12 07:40:08;;;;;;;7.97;5.55;;;4.40;79.80;;;;;;5116275;28;20309;-38
2022/02/12 07:42:35;;;;;;;7.53;5.20;;;4.30;80.00;;;;;;5116380;28;20028;-42
2022/02/12 07:45:00;;;;;;;7.25;5.13;;;4.30;80.10;;;;;;5116539;28;20053;-37
2022/02/12 07:47:26;;;;;;;7.72;5.15;;;4.20;80.20;;;;;;5116114;28;20023;-39
2022/02/12 07:49:51;;;;;;;6.20;4.60;;;4.20;80.50;;;;;;5116330;28;20032;-38
2022/02/12 07:52:18;;;;;;;7.70;5.20;;;4.10;80.50;;;;;;5115775;28;20051;-39
2022/02/12 07:54:44;;;;;;;7.45;4.55;;;4.10;80.80;;;;;;5116233;28;20058;-37
2022/02/12 07:57:10;;;;;;;5.47;3.75;;;4.10;81.10;;;;;;5116081;28;20062;-40
2022/02/12 07:59:35;;;;;;;4.47;3.42;;;4.20;81.30;;;;;;5116269;28;20055;-37
2022/02/12 08:02:01;;;;;;;4.25;3.30;;;4.20;81.50;;;;;;5116044;28;20438;-41
2022/02/12 08:04:28;;;;;;;4.50;3.33;;;4.20;81.60;;;;;;5116417;28;20383;-37
2022/02/12 08:09:38;;;;;;;5.13;3.28;;;4.30;81.90;;;;;;5116220;28;20046;-37
2022/02/12 08:12:13;;;;;;;4.80;3.55;;;4.30;81.50;;;;;;5115729;28;20031;-37
2022/02/12 08:15:05;;;;;;;5.07;3.30;;;4.30;81.60;;;;;;5115915;28;20032;-37
2022/02/12 08:17:30;;;;;;;4.18;3.13;;;4.30;81.70;;;;;;5110935;28;20085;-37
2022/02/12 08:19:58;;;;;;;4.95;3.55;;;4.30;81.50;;;;;;5116560;28;20400;-39
2022/02/12 08:22:23;;;;;;;4.47;3.13;;;4.30;81.20;;;;;;5116285;28;20032;-41
2022/02/12 08:24:49;;;;;;;5.88;3.67;;;4.30;81.20;;;;;;5115803;28;20035;-37
2022/02/12 08:27:15;;;;;;;4.63;3.70;;;4.30;81.30;;;;;;5116041;28;20027;-40
2022/02/12 08:29:42;;;;;;;3.97;3.17;;;4.40;81.40;;;;;;5115588;28;20027;-40
2022/02/12 08:32:08;;;;;;;6.03;4.05;;;4.40;81.30;;;;;;5115459;28;20425;-37
2022/02/12 08:34:37;;;;;;;4.78;3.50;;;4.40;81.20;;;;;;5116310;28;20023;-41
2022/02/12 08:37:03;;;;;;;4.80;3.42;;;4.40;80.90;;;;;;5097416;28;20040;-38
2022/02/12 08:39:29;;;;;;;4.82;3.42;;;4.40;80.90;;;;;;5095608;28;20039;-37
2022/02/12 08:41:55;;;;;;;5.20;3.58;;;4.50;80.80;;;;;;5095646;28;20024;-42
2022/02/12 08:44:21;;;;;;;3.92;2.75;;;4.50;80.60;;;;;;5095670;28;20027;-41
2022/02/12 08:46:46;;;;;;;3.97;3.03;;;4.50;80.70;;;;;;5095065;28;20297;-41
2022/02/12 08:49:14;;;;;;;3.50;2.65;;;4.50;80.40;;;;;;5095688;28;20051;-41
2022/02/12 08:51:40;;;;;;;3.97;2.85;;;4.50;80.00;;;;;;5094000;28;20071;-41
2022/02/12 08:54:11;;;;;;;3.20;2.55;;;4.50;79.80;;;;;;5095451;28;20028;-39
2022/02/12 08:56:40;;;;;;;2.83;2.53;;;4.60;80.00;;;;;;5095783;28;20028;-38
2022/02/12 08:59:06;;;;;;;3.63;2.78;;;4.60;80.00;;;;;;5095438;28;20032;-40
2022/02/12 09:01:33;;;;;;;3.97;3.05;;;4.60;80.00;;;;;;5113236;28;20031;-40
2022/02/12 09:03:59;;;;;;;5.25;3.35;;;4.60;79.80;;;;;;5098832;28;20032;-38
2022/02/12 09:06:25;;;;;;;7.25;3.88;;;4.70;79.80;;;;;;5095522;28;20114;-37
2022/02/12 09:08:52;;;;;;;5.78;3.22;;;4.70;79.60;;;;;;5094959;28;20372;-41
2022/02/12 09:11:21;;;;;;;5.38;3.38;;;4.80;79.30;;;;;;5095507;28;20024;-37
2022/02/12 09:13:49;;;;;;;4.63;3.00;;;4.80;79.00;;;;;;5094802;28;20024;-37
2022/02/12 09:16:17;;;;;;;4.45;2.85;;;4.80;78.40;;;;;;5095063;28;20028;-40
2022/02/12 09:18:43;;;;;;;6.20;3.80;;;4.80;77.90;;;;;;5092665;28;20313;-41
2022/02/12 09:21:09;;;;;;;4.65;3.00;;;4.80;77.80;;;;;;5114621;28;20034;-41
2022/02/12 09:23:34;;;;;;;4.70;3.17;;;4.70;77.60;;;;;;5114614;28;20387;-41
2022/02/12 09:26:00;;;;;;;7.53;4.03;;;4.80;77.60;;;;;;5115345;28;20043;-38
2022/02/12 09:28:26;;;;;;;5.28;3.40;;;4.80;77.20;;;;;;5116977;28;20028;-39
2022/02/12 09:30:51;;;;;;;9.23;4.53;;;4.90;77.30;;;;;;5119222;28;20057;-40
2022/02/12 09:33:17;;;;;;;5.88;3.40;;;4.90;77.40;;;;;;5118812;28;20027;-41
2022/02/12 09:35:43;;;;;;;3.90;2.80;;;4.90;76.80;;;;;;5119201;28;20114;-38
2022/02/12 09:38:10;;;;;;;4.47;2.65;;;4.90;76.50;;;;;;5119124;28;20328;-40
2022/02/12 09:40:37;;;;;;;13.98;7.43;;;5.00;76.50;;;;;;5105558;28;20042;-41
2022/02/12 09:43:04;;;;;;;2.63;2.13;;;5.10;76.60;;;;;;5098136;28;20115;-41
2022/02/12 09:45:39;;;;;;;3.25;2.50;;;5.10;76.10;;;;;;5098346;28;20024;-41
2022/02/12 09:48:08;;;;;;;5.35;3.20;;;5.10;76.20;;;;;;5098683;28;20054;-40
2022/02/12 09:50:37;;;;;;;123.82;55.88;;;5.20;76.20;;;;;;5098035;28;20043;-38
2022/02/12 09:53:03;;;;;;;8.35;5.03;;;5.20;75.90;;;;;;5097971;28;20028;-38
2022/02/12 09:55:31;;;;;;;6.03;3.78;;;5.20;75.90;;;;;;5098400;28;20081;-38
2022/02/12 09:57:58;;;;;;;6.60;3.60;;;5.30;75.90;;;;;;5097930;28;20036;-42
2022/02/12 10:00:24;;;;;;;5.20;3.60;;;5.40;75.90;;;;;;5098586;28;20028;-39
2022/02/12 10:02:50;;;;;;;5.15;4.20;;;5.40;75.20;;;;;;5104511;28;20077;-38
2022/02/12 10:05:21;;;;;;;5.18;3.60;;;5.50;74.50;;;;;;5118386;28;20323;-40
2022/02/12 10:07:48;;;;;;;5.65;4.00;;;5.50;73.90;;;;;;5117743;28;20035;-41
2022/02/12 10:10:16;;;;;;;4.88;3.35;;;5.50;73.80;;;;;;5117884;28;20046;-38
2022/02/12 10:12:42;;;;;;;14.73;7.13;;;5.50;73.20;;;;;;5117383;28;20115;-38
2022/02/12 10:15:12;;;;;;;21.63;11.25;;;5.60;72.90;;;;;;5118239;28;20130;-37
2022/02/12 10:17:50;;;;;;;6.00;4.50;;;5.50;72.40;;;;;;5117509;28;20024;-41
2022/02/12 10:20:33;;;;;;;19.33;11.30;;;5.50;72.90;;;;;;5118406;28;20035;-38
2022/02/12 10:23:15;;;;;;;9.55;6.25;;;5.40;73.30;;;;;;5117043;28;20052;-38
2022/02/12 10:25:47;;;;;;;6.45;5.05;;;5.40;73.60;;;;;;5117969;28;20035;-38
2022/02/12 10:28:15;;;;;;;6.15;4.15;;;5.40;73.80;;;;;;5117639;28;20028;-38
2022/02/12 10:30:44;;;;;;;6.30;4.13;;;5.50;73.90;;;;;;5117597;28;20030;-37
2022/02/12 10:33:10;;;;;;;7.10;4.60;;;5.40;73.80;;;;;;5114796;28;20028;-41
2022/02/12 10:35:36;;;;;;;6.15;3.90;;;5.40;74.10;;;;;;5117833;28;20316;-37
2022/02/12 10:38:05;;;;;;;6.18;4.30;;;5.50;74.10;;;;;;5116677;28;20063;-41
2022/02/12 10:40:32;;;;;;;10.07;5.90;;;5.40;73.90;;;;;;5116946;27;20046;-40
2022/02/12 10:42:58;;;;;;;7.88;5.65;;;5.50;73.80;;;;;;5116976;27;20301;-37
2022/02/12 10:45:26;;;;;;;9.32;4.90;;;5.50;73.60;;;;;;5117568;28;20039;-42
2022/02/12 10:47:54;;;;;;;7.55;4.93;;;5.60;73.70;;;;;;5116959;28;20098;-37
2022/02/12 10:50:21;;;;;;;10.23;5.15;;;5.60;73.60;;;;;;5117178;28;20439;-39
2022/02/12 10:52:50;;;;;;;8.50;4.68;;;5.60;73.50;;;;;;5116989;28;20035;-42
2022/02/12 10:55:38;;;;;;;9.82;4.93;;;5.70;73.20;;;;;;5117020;28;20042;-43
2022/02/12 10:58:16;;;;;;;9.85;4.60;;;5.80;72.80;;;;;;5116387;28;20419;-37
2022/02/12 11:00:42;;;;;;;8.57;4.90;;;5.80;72.70;;;;;;5117520;27;20331;-42
2022/02/12 11:03:12;;;;;;;9.98;4.38;;;5.90;72.60;;;;;;5115014;28;20318;-38
2022/02/12 11:05:40;;;;;;;8.48;5.03;;;5.90;71.90;;;;;;5117036;28;20046;-44
2022/02/12 11:08:07;;;;;;;7.00;4.00;;;6.00;71.70;;;;;;5116481;28;20040;-38
2022/02/12 11:10:37;;;;;;;9.02;3.92;;;6.00;71.30;;;;;;5117378;28;20115;-38
2022/02/12 11:13:08;;;;;;;11.07;4.57;;;6.00;71.10;;;;;;5116584;28;20105;-38
2022/02/12 11:15:35;;;;;;;12.18;4.60;;;6.00;71.10;;;;;;5116625;28;20047;-41
2022/02/12 11:18:05;;;;;;;17.05;6.47;;;6.00;70.80;;;;;;5116509;28;20141;-38
2022/02/12 11:20:34;;;;;;;9.05;4.78;;;6.10;71.10;;;;;;5117389;28;20315;-43
2022/02/12 11:23:29;;;;;;;10.52;5.38;;;6.10;71.00;;;;;;5116052;28;20054;-38
2022/02/12 11:26:02;;;;;;;7.68;4.20;;;6.10;70.80;;;;;;5099007;28;20028;-38
2022/02/12 11:28:29;;;;;;;7.05;4.00;;;6.10;70.90;;;;;;5115816;28;20114;-38
2022/02/12 11:31:15;;;;;;;12.27;6.20;;;6.10;70.60;;;;;;5116940;28;20020;-38
2022/02/12 11:34:05;;;;;;;14.25;6.38;;;6.10;70.10;;;;;;5115973;28;20023;-38
2022/02/12 11:36:32;;;;;;;10.18;4.88;;;6.10;69.90;;;;;;5116591;28;20029;-38
2022/02/12 11:39:13;;;;;;;11.73;5.47;;;6.00;69.40;;;;;;5116472;28;20042;-38
2022/02/12 11:41:43;;;;;;;11.63;5.70;;;6.10;69.50;;;;;;5115968;28;20058;-38
2022/02/12 11:44:09;;;;;;;10.52;5.68;;;6.00;69.40;;;;;;5116440;28;20028;-39
2022/02/12 11:46:51;;;;;;;14.10;5.60;;;6.00;69.20;;;;;;5115159;28;20031;-42
2022/02/12 11:49:34;;;;;;;11.93;6.88;;;6.00;68.90;;;;;;5115913;28;20020;-40
2022/02/12 11:52:27;;;;;;;12.43;6.60;;;5.90;69.00;;;;;;5114626;28;20197;-41
2022/02/12 11:54:58;;;;;;;14.95;7.95;;;5.90;69.10;;;;;;5116026;28;20344;-37
2022/02/12 11:57:26;;;;;;;;;;;5.90;69.20;;;;;;5115995;28;20111;-38
2022/02/12 12:00:12;;;;;;;24.75;12.75;;;5.90;69.50;;;;;;5116128;28;19907;-42
2022/02/12 12:02:45;;;;;;;26.50;12.68;;;5.80;69.70;;;;;;5115774;28;20118;-42
2022/02/12 12:05:24;;;;;;;15.82;6.88;;;5.80;69.80;;;;;;5115274;28;20373;-38
2022/02/12 12:08:00;;;;;;;19.33;10.70;;;5.90;69.70;;;;;;5115341;28;20024;-42
2022/02/12 12:10:34;;;;;;;20.92;9.63;;;5.90;69.60;;;;;;5115301;28;20043;-38
2022/02/12 12:13:22;;;;;;;15.63;7.18;;;5.90;69.40;;;;;;5113654;28;20030;-41
2022/02/12 12:15:56;;;;;;;14.82;8.13;;;6.00;69.60;;;;;;5103132;28;20315;-39
2022/02/12 12:18:25;;;;;;;17.83;10.73;;;6.00;69.40;;;;;;5115181;28;20412;-42
2022/02/12 12:20:50;;;;;;;17.42;8.82;;;6.00;69.40;;;;;;5115738;28;20315;-43
2022/02/12 12:23:17;;;;;;;20.75;10.27;;;6.00;69.40;;;;;;5115144;28;20038;-38
2022/02/12 12:26:02;;;;;;;18.23;7.60;;;6.00;69.10;;;;;;5115772;28;20099;-37
2022/02/12 12:28:28;;;;;;;15.05;6.53;;;6.10;68.60;;;;;;5115257;28;20028;-43
2022/02/12 12:30:54;;;;;;;13.27;6.05;;;6.00;68.30;;;;;;5115716;28;20102;-38
2022/02/12 12:33:21;;;;;;;10.20;6.15;;;6.00;67.70;;;;;;5115136;28;20112;-41
2022/02/12 12:35:55;;;;;;;12.82;5.00;;;5.90;67.60;;;;;;5115016;28;20362;-41
2022/02/12 12:38:34;;;;;;;20.35;9.52;;;5.90;67.60;;;;;;5115104;28;20039;-38
2022/02/12 12:41:18;;;;;;;14.75;6.53;;;5.80;67.50;;;;;;5115903;28;20032;-37
2022/02/12 12:43:44;;;;;;;18.70;8.07;;;5.90;67.40;;;;;;5114997;28;20365;-38
2022/02/12 12:46:09;;;;;;;22.63;10.80;;;5.80;67.20;;;;;;5115566;28;20028;-38
2022/02/12 12:48:35;;;;;;;15.57;7.75;;;5.80;67.10;;;;;;5114890;28;20028;-41
2022/02/12 12:51:00;;;;;;;15.57;6.82;;;5.80;66.60;;;;;;5115366;28;20048;-42
2022/02/12 12:53:26;;;;;;;13.13;5.60;;;5.80;66.60;;;;;;5114816;28;20032;-38